sensor_id;sensor_type;location;lat;lon;timestamp;pressure;altitude;pressure_sealevel;temperature;humidity
13456;BME280;6800;50.940;6.940;2023-12-14T00:02:55;99859.97;;;18.34;49.15
13456;BME280;6800;50.940;6.940;2023-12-14T00:06:56;99878.53;;;18.17;49.45
13456;BME280;6800;50.940;6.940;2023-12-14T00:11:03;99877.84;;;18.15;49.66
13456;BME280;6800;50.940;6.940;2023-12-14T00:15:06;99879.97;;;18.37;49.49
13456;BME280;6800;50.940;6.940;2023-12-14T00:19:08;99885.66;;;18.24;49.29
13456;BME280;6800;50.940;6.940;2023-12-14T00:23:10;99897.13;;;18.33;49.10
13456;BME280;6800;50.940;6.940;2023-12-14T00:27:11;99907.22;;;18.12;49.57
13456;BME280;6800;50.940;6.940;2023-12-14T00:31:14;99905.00;;;18.25;49.23
13456;BME280;6800;50.940;6.940;2023-12-14T00:35:16;99908.56;;;18.16;49.67
13456;BME280;6800;50.940;6.940;2023-12-14T00:39:20;99914.59;;;18.26;49.45
13456;BME280;6800;50.940;6.940;2023-12-14T00:43:23;99917.53;;;18.23;49.49
13456;BME280;6800;50.940;6.940;2023-12-14T00:47:25;99925.47;;;18.23;49.73
13456;BME280;6800;50.940;6.940;2023-12-14T00:51:26;99924.34;;;18.08;50.32
13456;BME280;6800;50.940;6.940;2023-12-14T00:55:28;99939.19;;;18.26;49.92
13456;BME280;6800;50.940;6.940;2023-12-14T00:59:29;99950.91;;;18.06;50.04
13456;BME280;6800;50.940;6.940;2023-12-14T01:03:31;99957.16;;;18.23;49.96
13456;BME280;6800;50.940;6.940;2023-12-14T01:07:33;99964.88;;;17.99;50.22
13456;BME280;6800;50.940;6.940;2023-12-14T01:11:34;99974.47;;;18.00;50.43
13456;BME280;6800;50.940;6.940;2023-12-14T01:15:36;99980.28;;;18.03;50.62
13456;BME280;6800;50.940;6.940;2023-12-14T01:19:41;99981.31;;;18.28;50.21
13456;BME280;6800;50.940;6.940;2023-12-14T01:23:43;99987.97;;;18.32;50.28
13456;BME280;6800;50.940;6.940;2023-12-14T01:27:45;100003.88;;;18.22;49.78
13456;BME280;6800;50.940;6.940;2023-12-14T01:31:47;100010.78;;;17.98;50.89
13456;BME280;6800;50.940;6.940;2023-12-14T01:35:48;100011.50;;;18.08;50.13
13456;BME280;6800;50.940;6.940;2023-12-14T01:39:50;100017.47;;;18.27;49.60
13456;BME280;6800;50.940;6.940;2023-12-14T01:43:52;100021.00;;;18.36;49.94
13456;BME280;6800;50.940;6.940;2023-12-14T01:47:53;100028.56;;;18.13;50.43
13456;BME280;6800;50.940;6.940;2023-12-14T01:51:55;100038.28;;;18.30;50.07
13456;BME280;6800;50.940;6.940;2023-12-14T01:55:57;100044.13;;;18.16;50.36
13456;BME280;6800;50.940;6.940;2023-12-14T01:59:59;100049.53;;;18.32;50.03
13456;BME280;6800;50.940;6.940;2023-12-14T02:04:01;100062.91;;;18.13;50.73
13456;BME280;6800;50.940;6.940;2023-12-14T02:08:04;100064.72;;;18.13;50.54
13456;BME280;6800;50.940;6.940;2023-12-14T02:12:06;100071.44;;;18.25;50.20
13456;BME280;6800;50.940;6.940;2023-12-14T02:16:08;100080.81;;;18.19;50.50
13456;BME280;6800;50.940;6.940;2023-12-14T02:20:10;100096.72;;;18.10;50.60
13456;BME280;6800;50.940;6.940;2023-12-14T02:24:12;100091.84;;;18.15;50.65
13456;BME280;6800;50.940;6.940;2023-12-14T02:28:13;100097.63;;;18.18;50.64
13456;BME280;6800;50.940;6.940;2023-12-14T02:32:15;100105.50;;;18.28;50.83
13456;BME280;6800;50.940;6.940;2023-12-14T02:36:17;100119.09;;;18.15;50.77
13456;BME280;6800;50.940;6.940;2023-12-14T02:40:18;100125.19;;;18.16;50.32
13456;BME280;6800;50.940;6.940;2023-12-14T02:44:20;100129.41;;;17.81;51.24
13456;BME280;6800;50.940;6.940;2023-12-14T02:48:22;100133.91;;;17.99;50.60
13456;BME280;6800;50.940;6.940;2023-12-14T02:52:24;100142.19;;;17.40;52.03
13456;BME280;6800;50.940;6.940;2023-12-14T02:56:25;100148.31;;;17.31;51.96
13456;BME280;6800;50.940;6.940;2023-12-14T03:00:30;100156.34;;;17.58;51.25
13456;BME280;6800;50.940;6.940;2023-12-14T03:04:31;100160.72;;;17.76;51.06
13456;BME280;6800;50.940;6.940;2023-12-14T03:08:33;100163.84;;;17.53;51.23
13456;BME280;6800;50.940;6.940;2023-12-14T03:12:35;100171.63;;;17.54;51.15
13456;BME280;6800;50.940;6.940;2023-12-14T03:16:36;100179.38;;;17.65;50.69
13456;BME280;6800;50.940;6.940;2023-12-14T03:20:40;100179.66;;;17.43;51.02
13456;BME280;6800;50.940;6.940;2023-12-14T03:24:42;100194.59;;;17.25;51.65
13456;BME280;6800;50.940;6.940;2023-12-14T03:28:47;100198.59;;;17.39;51.56
13456;BME280;6800;50.940;6.940;2023-12-14T03:32:49;100209.31;;;17.28;51.54
13456;BME280;6800;50.940;6.940;2023-12-14T03:36:51;100210.78;;;17.49;51.73
13456;BME280;6800;50.940;6.940;2023-12-14T03:40:54;100226.78;;;17.38;51.12
13456;BME280;6800;50.940;6.940;2023-12-14T03:44:57;100231.50;;;16.58;53.02
13456;BME280;6800;50.940;6.940;2023-12-14T03:49:02;100241.94;;;16.29;53.42
13456;BME280;6800;50.940;6.940;2023-12-14T03:53:05;100253.84;;;16.73;52.85
13456;BME280;6800;50.940;6.940;2023-12-14T03:57:07;100258.59;;;16.89;52.37
13456;BME280;6800;50.940;6.940;2023-12-14T04:01:16;100273.69;;;16.37;53.54
13456;BME280;6800;50.940;6.940;2023-12-14T04:05:18;100277.44;;;16.75;52.01
13456;BME280;6800;50.940;6.940;2023-12-14T04:09:31;100286.41;;;16.53;52.79
13456;BME280;6800;50.940;6.940;2023-12-14T04:13:38;100301.53;;;16.61;51.96
13456;BME280;6800;50.940;6.940;2023-12-14T04:17:46;100311.56;;;16.67;51.93
13456;BME280;6800;50.940;6.940;2023-12-14T04:21:51;100318.38;;;16.79;51.24
13456;BME280;6800;50.940;6.940;2023-12-14T04:25:52;100321.03;;;17.07;50.38
13456;BME280;6800;50.940;6.940;2023-12-14T04:29:54;100329.53;;;16.52;51.76
13456;BME280;6800;50.940;6.940;2023-12-14T04:33:57;100326.22;;;17.09;50.55
13456;BME280;6800;50.940;6.940;2023-12-14T04:37:59;100328.56;;;17.02;50.77
13456;BME280;6800;50.940;6.940;2023-12-14T04:42:00;100335.16;;;16.78;50.93
13456;BME280;6800;50.940;6.940;2023-12-14T04:46:03;100345.41;;;16.71;51.05
13456;BME280;6800;50.940;6.940;2023-12-14T04:50:05;100347.09;;;16.82;51.39
13456;BME280;6800;50.940;6.940;2023-12-14T04:54:08;100356.25;;;16.48;51.29
13456;BME280;6800;50.940;6.940;2023-12-14T04:58:10;100367.66;;;16.88;50.70
13456;BME280;6800;50.940;6.940;2023-12-14T05:02:13;100386.00;;;16.59;51.06
13456;BME280;6800;50.940;6.940;2023-12-14T05:06:15;100382.59;;;16.48;51.99
13456;BME280;6800;50.940;6.940;2023-12-14T05:10:24;100397.78;;;16.55;50.97
13456;BME280;6800;50.940;6.940;2023-12-14T05:14:25;100401.78;;;16.50;51.20
13456;BME280;6800;50.940;6.940;2023-12-14T05:18:30;100404.75;;;16.66;50.58
13456;BME280;6800;50.940;6.940;2023-12-14T05:22:31;100410.25;;;16.83;50.02
13456;BME280;6800;50.940;6.940;2023-12-14T05:26:34;100414.50;;;16.75;50.35
13456;BME280;6800;50.940;6.940;2023-12-14T05:30:40;100413.47;;;16.36;51.40
13456;BME280;6800;50.940;6.940;2023-12-14T05:34:46;100419.31;;;16.19;51.33
13456;BME280;6800;50.940;6.940;2023-12-14T05:38:49;100427.72;;;16.13;51.83
13456;BME280;6800;50.940;6.940;2023-12-14T05:42:51;100430.03;;;16.06;51.37
13456;BME280;6800;50.940;6.940;2023-12-14T05:46:52;100442.75;;;16.01;51.79
13456;BME280;6800;50.940;6.940;2023-12-14T05:50:54;100442.69;;;16.33;50.42
13456;BME280;6800;50.940;6.940;2023-12-14T05:54:55;100454.81;;;16.04;51.13
13456;BME280;6800;50.940;6.940;2023-12-14T05:58:57;100461.91;;;16.24;50.16
13456;BME280;6800;50.940;6.940;2023-12-14T06:02:59;100475.16;;;15.81;51.07
13456;BME280;6800;50.940;6.940;2023-12-14T06:07:01;100478.16;;;16.29;49.85
13456;BME280;6800;50.940;6.940;2023-12-14T06:11:03;100490.19;;;16.22;50.15
13456;BME280;6800;50.940;6.940;2023-12-14T06:15:07;100495.69;;;16.19;50.00
13456;BME280;6800;50.940;6.940;2023-12-14T06:19:09;100505.47;;;16.28;49.61
13456;BME280;6800;50.940;6.940;2023-12-14T06:23:11;100513.66;;;16.14;50.32
13456;BME280;6800;50.940;6.940;2023-12-14T06:27:12;100530.81;;;16.29;49.50
13456;BME280;6800;50.940;6.940;2023-12-14T06:31:15;100540.50;;;16.08;50.41
13456;BME280;6800;50.940;6.940;2023-12-14T06:35:28;100550.63;;;15.92;50.77
13456;BME280;6800;50.940;6.940;2023-12-14T06:39:31;100556.06;;;16.11;50.38
13456;BME280;6800;50.940;6.940;2023-12-14T06:43:33;100562.25;;;16.41;50.12
13456;BME280;6800;50.940;6.940;2023-12-14T06:47:34;100587.41;;;16.14;50.13
13456;BME280;6800;50.940;6.940;2023-12-14T06:51:36;100586.53;;;16.24;50.20
13456;BME280;6800;50.940;6.940;2023-12-14T06:55:39;100600.56;;;16.14;50.65
13456;BME280;6800;50.940;6.940;2023-12-14T06:59:40;100601.13;;;16.28;51.84
13456;BME280;6800;50.940;6.940;2023-12-14T07:03:42;100605.63;;;16.69;51.30
13456;BME280;6800;50.940;6.940;2023-12-14T07:07:45;100623.19;;;16.16;52.02
13456;BME280;6800;50.940;6.940;2023-12-14T07:11:47;100643.13;;;15.87;51.78
13456;BME280;6800;50.940;6.940;2023-12-14T07:15:49;100635.94;;;16.43;50.56
13456;BME280;6800;50.940;6.940;2023-12-14T07:19:51;100642.91;;;15.68;52.51
13456;BME280;6800;50.940;6.940;2023-12-14T07:23:53;100647.31;;;15.90;51.63
13456;BME280;6800;50.940;6.940;2023-12-14T07:27:54;100660.38;;;15.58;52.55
13456;BME280;6800;50.940;6.940;2023-12-14T07:31:56;100669.94;;;15.48;52.92
13456;BME280;6800;50.940;6.940;2023-12-14T07:35:58;100682.13;;;15.03;53.72
13456;BME280;6800;50.940;6.940;2023-12-14T07:39:59;100673.28;;;15.50;52.78
13456;BME280;6800;50.940;6.940;2023-12-14T07:44:01;100690.59;;;15.52;52.46
13456;BME280;6800;50.940;6.940;2023-12-14T07:48:07;100690.53;;;17.46;48.91
13456;BME280;6800;50.940;6.940;2023-12-14T07:52:09;100702.53;;;18.59;45.38
13456;BME280;6800;50.940;6.940;2023-12-14T07:56:10;100710.31;;;18.90;44.76
13456;BME280;6800;50.940;6.940;2023-12-14T08:00:13;100722.56;;;19.10;44.20
13456;BME280;6800;50.940;6.940;2023-12-14T08:04:15;100727.56;;;19.22;43.90
13456;BME280;6800;50.940;6.940;2023-12-14T08:08:16;100732.47;;;19.08;43.70
13456;BME280;6800;50.940;6.940;2023-12-14T08:12:19;100750.69;;;19.30;43.43
13456;BME280;6800;50.940;6.940;2023-12-14T08:16:20;100749.81;;;18.53;44.73
13456;BME280;6800;50.940;6.940;2023-12-14T08:20:22;100758.09;;;18.98;44.10
13456;BME280;6800;50.940;6.940;2023-12-14T08:24:24;100761.31;;;19.39;42.40
13456;BME280;6800;50.940;6.940;2023-12-14T08:28:25;100766.19;;;19.34;42.80
13456;BME280;6800;50.940;6.940;2023-12-14T08:32:27;100778.31;;;19.47;42.62
13456;BME280;6800;50.940;6.940;2023-12-14T08:36:31;100792.63;;;19.25;42.97
13456;BME280;6800;50.940;6.940;2023-12-14T08:40:33;100797.13;;;19.43;42.67
13456;BME280;6800;50.940;6.940;2023-12-14T08:44:34;100809.47;;;19.05;42.93
13456;BME280;6800;50.940;6.940;2023-12-14T08:48:38;100815.06;;;19.21;42.36
13456;BME280;6800;50.940;6.940;2023-12-14T08:52:40;100812.97;;;19.15;42.76
13456;BME280;6800;50.940;6.940;2023-12-14T08:56:42;100826.50;;;19.31;42.32
13456;BME280;6800;50.940;6.940;2023-12-14T09:00:44;100838.66;;;19.53;41.80
13456;BME280;6800;50.940;6.940;2023-12-14T09:04:45;100843.34;;;19.30;42.56
13456;BME280;6800;50.940;6.940;2023-12-14T09:08:48;100857.19;;;15.29;51.15
13456;BME280;6800;50.940;6.940;2023-12-14T09:12:50;100875.81;;;15.03;52.08
13456;BME280;6800;50.940;6.940;2023-12-14T09:16:51;100881.56;;;14.84;52.93
13456;BME280;6800;50.940;6.940;2023-12-14T09:20:53;100884.75;;;14.51;53.02
13456;BME280;6800;50.940;6.940;2023-12-14T09:24:55;100897.38;;;15.08;52.07
13456;BME280;6800;50.940;6.940;2023-12-14T09:28:56;100901.47;;;15.12;51.81
13456;BME280;6800;50.940;6.940;2023-12-14T09:32:58;100909.16;;;15.02;52.42
13456;BME280;6800;50.940;6.940;2023-12-14T09:37:00;100917.75;;;15.40;51.79
13456;BME280;6800;50.940;6.940;2023-12-14T09:41:02;100927.25;;;15.30;51.84
13456;BME280;6800;50.940;6.940;2023-12-14T09:45:06;100929.66;;;15.46;52.47
13456;BME280;6800;50.940;6.940;2023-12-14T09:49:09;100926.31;;;14.82;52.94
13456;BME280;6800;50.940;6.940;2023-12-14T09:53:10;100934.78;;;15.11;52.37
13456;BME280;6800;50.940;6.940;2023-12-14T09:57:13;100941.59;;;15.26;51.94
13456;BME280;6800;50.940;6.940;2023-12-14T10:01:23;100950.91;;;15.43;52.14
13456;BME280;6800;50.940;6.940;2023-12-14T10:05:26;100955.22;;;14.95;53.53
13456;BME280;6800;50.940;6.940;2023-12-14T10:09:29;100958.13;;;15.16;52.87
13456;BME280;6800;50.940;6.940;2023-12-14T10:13:38;100959.56;;;14.71;53.62
13456;BME280;6800;50.940;6.940;2023-12-14T10:17:40;100964.75;;;15.09;52.72
13456;BME280;6800;50.940;6.940;2023-12-14T10:21:42;100971.22;;;14.79;53.34
13456;BME280;6800;50.940;6.940;2023-12-14T10:25:44;100985.31;;;15.27;52.99
13456;BME280;6800;50.940;6.940;2023-12-14T10:29:47;100984.59;;;15.25;53.16
13456;BME280;6800;50.940;6.940;2023-12-14T10:33:48;100999.00;;;15.32;52.88
13456;BME280;6800;50.940;6.940;2023-12-14T10:37:51;101008.41;;;15.11;53.74
13456;BME280;6800;50.940;6.940;2023-12-14T10:41:55;101019.56;;;15.02;53.35
13456;BME280;6800;50.940;6.940;2023-12-14T10:46:11;101027.97;;;15.07;53.07
13456;BME280;6800;50.940;6.940;2023-12-14T10:50:14;101038.28;;;14.85;53.94
13456;BME280;6800;50.940;6.940;2023-12-14T10:54:17;101044.59;;;15.08;53.35
13456;BME280;6800;50.940;6.940;2023-12-14T10:58:19;101055.88;;;14.97;53.47
13456;BME280;6800;50.940;6.940;2023-12-14T11:02:21;101052.16;;;14.87;53.48
13456;BME280;6800;50.940;6.940;2023-12-14T11:06:31;101048.91;;;14.96;53.63
13456;BME280;6800;50.940;6.940;2023-12-14T11:10:39;101041.13;;;14.95;53.43
13456;BME280;6800;50.940;6.940;2023-12-14T11:14:41;101048.38;;;15.16;53.57
13456;BME280;6800;50.940;6.940;2023-12-14T11:18:44;101058.13;;;15.14;53.45
13456;BME280;6800;50.940;6.940;2023-12-14T11:22:46;101068.66;;;15.02;53.29
13456;BME280;6800;50.940;6.940;2023-12-14T11:26:51;101071.22;;;14.91;53.47
13456;BME280;6800;50.940;6.940;2023-12-14T11:30:54;101076.56;;;15.27;53.14
13456;BME280;6800;50.940;6.940;2023-12-14T11:34:59;101085.03;;;14.55;53.81
13456;BME280;6800;50.940;6.940;2023-12-14T11:39:01;101088.22;;;14.98;53.53
13456;BME280;6800;50.940;6.940;2023-12-14T11:43:03;101103.50;;;15.05;53.19
13456;BME280;6800;50.940;6.940;2023-12-14T11:47:11;101098.84;;;14.96;52.77
13456;BME280;6800;50.940;6.940;2023-12-14T11:51:13;101098.00;;;14.96;53.21
13456;BME280;6800;50.940;6.940;2023-12-14T11:55:15;101100.75;;;14.81;53.76
13456;BME280;6800;50.940;6.940;2023-12-14T11:59:18;101108.63;;;14.94;53.30
13456;BME280;6800;50.940;6.940;2023-12-14T12:03:21;101111.03;;;14.84;53.40
13456;BME280;6800;50.940;6.940;2023-12-14T12:07:23;101115.44;;;14.71;53.40
13456;BME280;6800;50.940;6.940;2023-12-14T12:11:26;101113.78;;;15.08;53.22
13456;BME280;6800;50.940;6.940;2023-12-14T12:15:29;101114.94;;;15.04;52.75
13456;BME280;6800;50.940;6.940;2023-12-14T12:19:36;101114.81;;;14.93;52.98
13456;BME280;6800;50.940;6.940;2023-12-14T12:23:38;101117.56;;;15.17;52.46
13456;BME280;6800;50.940;6.940;2023-12-14T12:27:40;101110.22;;;15.22;52.35
13456;BME280;6800;50.940;6.940;2023-12-14T12:31:42;101112.63;;;15.12;52.77
13456;BME280;6800;50.940;6.940;2023-12-14T12:35:44;101122.31;;;15.24;52.32
13456;BME280;6800;50.940;6.940;2023-12-14T12:39:46;101115.47;;;15.09;52.86
13456;BME280;6800;50.940;6.940;2023-12-14T12:43:48;101126.72;;;15.11;52.44
13456;BME280;6800;50.940;6.940;2023-12-14T12:47:50;101129.78;;;15.30;51.24
13456;BME280;6800;50.940;6.940;2023-12-14T12:51:52;101134.31;;;15.28;50.97
13456;BME280;6800;50.940;6.940;2023-12-14T12:55:54;101143.03;;;15.16;51.03
13456;BME280;6800;50.940;6.940;2023-12-14T12:59:56;101148.19;;;15.30;50.74
13456;BME280;6800;50.940;6.940;2023-12-14T13:03:57;101147.56;;;15.27;50.63
13456;BME280;6800;50.940;6.940;2023-12-14T13:08:00;101148.22;;;15.43;50.64
13456;BME280;6800;50.940;6.940;2023-12-14T13:12:02;101160.47;;;14.92;50.80
13456;BME280;6800;50.940;6.940;2023-12-14T13:16:04;101169.97;;;15.20;50.38
13456;BME280;6800;50.940;6.940;2023-12-14T13:20:06;101171.75;;;15.19;50.06
13456;BME280;6800;50.940;6.940;2023-12-14T13:24:08;101181.41;;;15.19;50.07
13456;BME280;6800;50.940;6.940;2023-12-14T13:28:10;101179.81;;;15.04;50.34
13456;BME280;6800;50.940;6.940;2023-12-14T13:32:15;101183.97;;;15.20;49.89
13456;BME280;6800;50.940;6.940;2023-12-14T13:36:17;101190.91;;;15.34;49.23
13456;BME280;6800;50.940;6.940;2023-12-14T13:40:20;101201.72;;;15.17;49.41
13456;BME280;6800;50.940;6.940;2023-12-14T13:44:22;101210.75;;;15.00;49.96
13456;BME280;6800;50.940;6.940;2023-12-14T13:48:25;101215.59;;;15.06;49.44
13456;BME280;6800;50.940;6.940;2023-12-14T13:52:27;101218.22;;;15.06;50.16
13456;BME280;6800;50.940;6.940;2023-12-14T13:56:32;101225.81;;;15.11;49.74
13456;BME280;6800;50.940;6.940;2023-12-14T14:00:33;101228.72;;;15.06;49.56
13456;BME280;6800;50.940;6.940;2023-12-14T14:04:36;101241.47;;;15.25;49.82
13456;BME280;6800;50.940;6.940;2023-12-14T14:08:37;101254.56;;;15.26;50.03
13456;BME280;6800;50.940;6.940;2023-12-14T14:12:39;101254.03;;;15.34;49.89
13456;BME280;6800;50.940;6.940;2023-12-14T14:16:41;101267.59;;;15.28;49.68
13456;BME280;6800;50.940;6.940;2023-12-14T14:20:43;101279.94;;;15.01;50.01
13456;BME280;6800;50.940;6.940;2023-12-14T14:24:44;101285.06;;;14.49;50.12
13456;BME280;6800;50.940;6.940;2023-12-14T14:28:46;101288.75;;;15.00;49.28
13456;BME280;6800;50.940;6.940;2023-12-14T14:32:48;101293.25;;;15.12;48.88
13456;BME280;6800;50.940;6.940;2023-12-14T14:36:49;101301.28;;;14.96;48.97
13456;BME280;6800;50.940;6.940;2023-12-14T14:40:51;101319.97;;;15.18;48.57
13456;BME280;6800;50.940;6.940;2023-12-14T14:44:54;101328.00;;;15.03;48.66
13456;BME280;6800;50.940;6.940;2023-12-14T14:48:56;101329.09;;;14.86;49.64
13456;BME280;6800;50.940;6.940;2023-12-14T14:52:58;101327.00;;;14.91;49.33
13456;BME280;6800;50.940;6.940;2023-12-14T14:57:00;101345.50;;;14.90;49.56
13456;BME280;6800;50.940;6.940;2023-12-14T15:01:02;101351.06;;;14.85;49.55
13456;BME280;6800;50.940;6.940;2023-12-14T15:05:04;101356.31;;;14.85;49.49
13456;BME280;6800;50.940;6.940;2023-12-14T15:09:06;101362.28;;;14.60;50.19
13456;BME280;6800;50.940;6.940;2023-12-14T15:13:11;101377.75;;;14.65;50.31
13456;BME280;6800;50.940;6.940;2023-12-14T15:17:13;101376.56;;;14.56;49.78
13456;BME280;6800;50.940;6.940;2023-12-14T15:21:15;101388.28;;;14.65;48.83
13456;BME280;6800;50.940;6.940;2023-12-14T15:25:17;101390.53;;;14.57;49.75
13456;BME280;6800;50.940;6.940;2023-12-14T15:29:19;101393.16;;;14.71;48.47
13456;BME280;6800;50.940;6.940;2023-12-14T15:33:21;101402.34;;;14.64;48.51
13456;BME280;6800;50.940;6.940;2023-12-14T15:37:23;101400.47;;;14.52;48.63
13456;BME280;6800;50.940;6.940;2023-12-14T15:41:25;101416.97;;;14.54;48.83
13456;BME280;6800;50.940;6.940;2023-12-14T15:45:26;101416.13;;;14.53;48.52
13456;BME280;6800;50.940;6.940;2023-12-14T15:49:29;101416.03;;;14.83;48.02
13456;BME280;6800;50.940;6.940;2023-12-14T15:53:31;101430.88;;;14.56;48.51
13456;BME280;6800;50.940;6.940;2023-12-14T15:57:33;101445.31;;;14.49;48.32
13456;BME280;6800;50.940;6.940;2023-12-14T16:01:34;101447.94;;;14.35;48.86
13456;BME280;6800;50.940;6.940;2023-12-14T16:05:38;101452.53;;;14.59;47.91
13456;BME280;6800;50.940;6.940;2023-12-14T16:09:42;101455.66;;;14.52;47.79
13456;BME280;6800;50.940;6.940;2023-12-14T16:13:44;101464.66;;;14.18;48.59
13456;BME280;6800;50.940;6.940;2023-12-14T16:17:48;101465.75;;;14.72;48.44
13456;BME280;6800;50.940;6.940;2023-12-14T16:21:49;101474.53;;;14.87;47.96
13456;BME280;6800;50.940;6.940;2023-12-14T16:25:51;101483.03;;;14.62;46.88
13456;BME280;6800;50.940;6.940;2023-12-14T16:29:53;101487.09;;;14.81;46.91
13456;BME280;6800;50.940;6.940;2023-12-14T16:33:55;101494.59;;;14.73;46.45
13456;BME280;6800;50.940;6.940;2023-12-14T16:37:57;101483.72;;;14.79;46.43
13456;BME280;6800;50.940;6.940;2023-12-14T16:41:59;101499.19;;;14.70;46.64
13456;BME280;6800;50.940;6.940;2023-12-14T16:46:01;101505.59;;;14.80;46.37
13456;BME280;6800;50.940;6.940;2023-12-14T16:50:03;101531.19;;;14.62;46.98
13456;BME280;6800;50.940;6.940;2023-12-14T16:54:05;101522.84;;;14.70;46.49
13456;BME280;6800;50.940;6.940;2023-12-14T16:58:06;101541.03;;;14.59;46.72
13456;BME280;6800;50.940;6.940;2023-12-14T17:02:08;101548.50;;;14.95;46.13
13456;BME280;6800;50.940;6.940;2023-12-14T17:06:17;101555.13;;;14.72;46.85
13456;BME280;6800;50.940;6.940;2023-12-14T17:10:18;101558.59;;;14.72;46.74
13456;BME280;6800;50.940;6.940;2023-12-14T17:14:20;101565.41;;;14.47;47.40
13456;BME280;6800;50.940;6.940;2023-12-14T17:18:23;101574.09;;;14.33;47.77
13456;BME280;6800;50.940;6.940;2023-12-14T17:22:25;101576.19;;;14.27;48.06
13456;BME280;6800;50.940;6.940;2023-12-14T17:26:27;101585.34;;;14.65;46.74
13456;BME280;6800;50.940;6.940;2023-12-14T17:30:29;101583.97;;;14.73;47.08
13456;BME280;6800;50.940;6.940;2023-12-14T17:34:31;101594.69;;;14.55;47.73
13456;BME280;6800;50.940;6.940;2023-12-14T17:38:34;101596.00;;;14.92;46.69
13456;BME280;6800;50.940;6.940;2023-12-14T17:42:36;101608.59;;;14.57;47.61
13456;BME280;6800;50.940;6.940;2023-12-14T17:46:38;101617.56;;;14.82;47.02
13456;BME280;6800;50.940;6.940;2023-12-14T17:50:49;101625.38;;;14.98;46.81
13456;BME280;6800;50.940;6.940;2023-12-14T17:54:50;101620.13;;;14.98;46.89
13456;BME280;6800;50.940;6.940;2023-12-14T17:58:53;101633.00;;;14.59;47.43
13456;BME280;6800;50.940;6.940;2023-12-14T18:02:56;101630.41;;;14.73;47.61
13456;BME280;6800;50.940;6.940;2023-12-14T18:06:58;101637.44;;;14.72;47.06
13456;BME280;6800;50.940;6.940;2023-12-14T18:11:04;101636.94;;;14.66;47.50
13456;BME280;6800;50.940;6.940;2023-12-14T18:15:06;101640.34;;;14.23;48.59
13456;BME280;6800;50.940;6.940;2023-12-14T18:19:08;101646.53;;;14.37;48.02
13456;BME280;6800;50.940;6.940;2023-12-14T18:23:11;101652.75;;;14.19;47.88
13456;BME280;6800;50.940;6.940;2023-12-14T18:27:13;101656.09;;;14.23;47.88
13456;BME280;6800;50.940;6.940;2023-12-14T18:31:17;101666.16;;;14.15;47.49
13456;BME280;6800;50.940;6.940;2023-12-14T18:35:18;101660.66;;;14.03;47.78
13456;BME280;6800;50.940;6.940;2023-12-14T18:39:23;101687.59;;;14.07;48.14
13456;BME280;6800;50.940;6.940;2023-12-14T18:43:24;101695.56;;;14.05;47.98
13456;BME280;6800;50.940;6.940;2023-12-14T18:47:26;101702.75;;;13.86;48.45
13456;BME280;6800;50.940;6.940;2023-12-14T18:51:28;101703.59;;;14.18;47.82
13456;BME280;6800;50.940;6.940;2023-12-14T18:55:32;101713.75;;;14.08;48.18
13456;BME280;6800;50.940;6.940;2023-12-14T18:59:34;101725.66;;;14.31;47.50
13456;BME280;6800;50.940;6.940;2023-12-14T19:03:35;101732.50;;;14.34;47.84
13456;BME280;6800;50.940;6.940;2023-12-14T19:07:39;101738.97;;;14.44;47.42
13456;BME280;6800;50.940;6.940;2023-12-14T19:11:41;101742.00;;;14.52;46.97
13456;BME280;6800;50.940;6.940;2023-12-14T19:15:43;101751.91;;;14.47;47.11
13456;BME280;6800;50.940;6.940;2023-12-14T19:19:45;101746.91;;;14.27;46.74
13456;BME280;6800;50.940;6.940;2023-12-14T19:23:47;101751.66;;;14.36;46.70
13456;BME280;6800;50.940;6.940;2023-12-14T19:27:49;101746.41;;;14.36;46.56
13456;BME280;6800;50.940;6.940;2023-12-14T19:31:54;101753.50;;;14.34;46.54
13456;BME280;6800;50.940;6.940;2023-12-14T19:35:57;101754.19;;;14.53;45.78
13456;BME280;6800;50.940;6.940;2023-12-14T19:39:58;101766.56;;;14.66;46.18
13456;BME280;6800;50.940;6.940;2023-12-14T19:44:02;101754.28;;;14.67;45.80
13456;BME280;6800;50.940;6.940;2023-12-14T19:48:05;101752.00;;;14.61;45.89
13456;BME280;6800;50.940;6.940;2023-12-14T19:52:08;101765.31;;;14.58;45.67
13456;BME280;6800;50.940;6.940;2023-12-14T19:56:14;101779.28;;;14.58;45.63
13456;BME280;6800;50.940;6.940;2023-12-14T20:00:16;101776.81;;;14.71;45.27
13456;BME280;6800;50.940;6.940;2023-12-14T20:04:18;101783.34;;;14.64;45.02
13456;BME280;6800;50.940;6.940;2023-12-14T20:08:19;101789.13;;;14.70;44.61
13456;BME280;6800;50.940;6.940;2023-12-14T20:12:23;101786.16;;;14.61;44.74
13456;BME280;6800;50.940;6.940;2023-12-14T20:16:25;101795.38;;;14.68;44.05
13456;BME280;6800;50.940;6.940;2023-12-14T20:20:27;101797.00;;;14.86;44.21
13456;BME280;6800;50.940;6.940;2023-12-14T20:24:29;101793.66;;;14.82;43.61
13456;BME280;6800;50.940;6.940;2023-12-14T20:28:33;101799.44;;;14.89;43.90
13456;BME280;6800;50.940;6.940;2023-12-14T20:32:35;101804.13;;;14.84;43.80
13456;BME280;6800;50.940;6.940;2023-12-14T20:36:37;101811.16;;;14.83;43.69
13456;BME280;6800;50.940;6.940;2023-12-14T20:40:39;101803.94;;;14.87;43.84
13456;BME280;6800;50.940;6.940;2023-12-14T20:44:41;101808.06;;;14.91;43.69
13456;BME280;6800;50.940;6.940;2023-12-14T20:48:45;101818.44;;;14.94;43.71
13456;BME280;6800;50.940;6.940;2023-12-14T20:52:47;101823.69;;;14.94;42.94
13456;BME280;6800;50.940;6.940;2023-12-14T20:56:49;101826.56;;;15.05;42.96
13456;BME280;6800;50.940;6.940;2023-12-14T21:00:51;101825.56;;;15.08;42.86
13456;BME280;6800;50.940;6.940;2023-12-14T21:04:52;101826.81;;;15.16;43.46
13456;BME280;6800;50.940;6.940;2023-12-14T21:08:54;101837.41;;;15.15;43.61
13456;BME280;6800;50.940;6.940;2023-12-14T21:12:56;101835.22;;;14.76;44.49
13456;BME280;6800;50.940;6.940;2023-12-14T21:16:58;101841.59;;;14.56;44.93
13456;BME280;6800;50.940;6.940;2023-12-14T21:20:59;101829.72;;;14.49;44.93
13456;BME280;6800;50.940;6.940;2023-12-14T21:25:02;101839.47;;;14.63;45.09